Time;durP1;ratioP1;P1;durP2;ratioP2;P2;SDS_P1;SDS_P2;PMS_P1;PMS_P2;Temp;Humidity;BMP_temperature;BMP_pressure;BME280_temperature;BME280_humidity;BME280_pressure;Samples;Min_cycle;Max_cycle;Signal;HPM_P1;HPM_P2
2022/03/02 00:01:55;;;;;;;28.52;15.27;;;6.20;99.90;;;;;;5021214;28;20079;-80
2022/03/02 00:04:21;;;;;;;26.80;15.52;;;6.20;99.90;;;;;;5033608;28;20041;-80
2022/03/02 00:06:47;;;;;;;25.52;15.10;;;6.20;99.90;;;;;;5033536;28;20068;-80
2022/03/02 00:09:12;;;;;;;27.25;15.80;;;6.10;99.90;;;;;;5023424;28;20025;-80
2022/03/02 00:11:38;;;;;;;30.00;16.13;;;6.10;99.90;;;;;;5034294;28;20076;-80
2022/03/02 00:14:05;;;;;;;29.02;15.23;;;6.00;99.90;;;;;;5032289;28;20036;-81
2022/03/02 00:16:31;;;;;;;27.23;15.60;;;6.00;99.90;;;;;;5034026;28;20029;-81
2022/03/02 00:18:58;;;;;;;29.30;15.88;;;6.00;99.90;;;;;;5032441;28;20075;-80
2022/03/02 00:21:24;;;;;;;29.33;15.55;;;5.90;99.90;;;;;;5032939;28;20459;-80
2022/03/02 00:23:50;;;;;;;27.60;16.20;;;5.90;99.90;;;;;;5033258;28;20029;-81
2022/03/02 00:26:17;;;;;;;25.75;15.15;;;5.90;99.90;;;;;;5033634;28;20079;-80
2022/03/02 00:28:43;;;;;;;26.95;14.82;;;6.00;99.90;;;;;;5031728;28;20063;-81
2022/03/02 00:31:09;;;;;;;27.00;15.13;;;6.00;99.90;;;;;;5031890;28;20075;-81
2022/03/02 00:33:35;;;;;;;28.10;15.65;;;6.00;99.90;;;;;;5033374;28;20033;-81
2022/03/02 00:36:01;;;;;;;31.83;16.15;;;6.00;99.90;;;;;;5027157;28;20026;-81
2022/03/02 00:38:27;;;;;;;28.13;14.73;;;6.00;99.90;;;;;;5027238;28;20052;-81
2022/03/02 00:40:53;;;;;;;29.15;15.80;;;6.00;99.90;;;;;;5025016;28;20042;-81
2022/03/02 00:43:18;;;;;;;26.92;16.05;;;6.00;99.90;;;;;;5021306;28;20022;-81
2022/03/02 00:45:44;;;;;;;28.52;15.93;;;6.00;99.90;;;;;;5033387;28;20025;-81
2022/03/02 00:48:11;;;;;;;26.42;14.88;;;6.10;99.90;;;;;;5033328;28;20022;-81
2022/03/02 00:50:37;;;;;;;29.63;16.30;;;6.00;99.90;;;;;;5028772;28;20017;-82
2022/03/02 00:53:05;;;;;;;28.35;16.55;;;6.00;99.90;;;;;;5032917;28;20033;-82
2022/03/02 00:55:32;;;;;;;28.35;15.30;;;6.00;99.90;;;;;;5032128;28;20017;-81
2022/03/02 00:57:57;;;;;;;31.38;16.00;;;6.00;99.90;;;;;;5029498;28;20460;-81
2022/03/02 01:00:23;;;;;;;32.10;16.15;;;6.10;99.90;;;;;;5026334;28;20109;-82
2022/03/02 01:02:49;;;;;;;29.48;16.25;;;6.00;99.90;;;;;;5031407;28;20028;-82
2022/03/02 01:05:14;;;;;;;30.15;16.17;;;6.00;99.90;;;;;;5032691;28;20033;-82
2022/03/02 01:07:40;;;;;;;30.45;16.25;;;6.00;99.90;;;;;;5027861;28;20030;-81
2022/03/02 01:10:07;;;;;;;32.22;17.40;;;6.00;99.90;;;;;;5030684;28;20021;-81
2022/03/02 01:12:33;;;;;;;28.75;16.70;;;6.00;99.90;;;;;;5031504;28;20029;-81
2022/03/02 01:14:59;;;;;;;26.88;15.90;;;6.00;99.90;;;;;;5028247;28;20042;-81
2022/03/02 01:17:24;;;;;;;26.13;15.75;;;6.00;99.90;;;;;;5032431;28;20029;-81
2022/03/02 01:19:50;;;;;;;32.25;17.23;;;6.00;99.90;;;;;;5032332;28;20045;-81
2022/03/02 01:22:16;;;;;;;33.55;17.10;;;6.00;99.90;;;;;;5032744;28;20044;-82
2022/03/02 01:24:41;;;;;;;33.75;17.05;;;6.00;99.90;;;;;;5031730;28;20033;-82
2022/03/02 01:27:07;;;;;;;31.00;17.27;;;6.00;99.90;;;;;;5031846;28;20143;-81
2022/03/02 01:29:34;;;;;;;37.83;18.90;;;6.00;99.90;;;;;;5032200;28;20029;-82
2022/03/02 01:32:02;;;;;;;32.85;18.83;;;5.90;99.90;;;;;;5023184;28;20040;-81
2022/03/02 01:34:28;;;;;;;33.97;18.52;;;5.90;99.90;;;;;;5021258;28;20022;-82
2022/03/02 01:36:53;;;;;;;31.55;17.60;;;5.90;99.90;;;;;;5029158;28;20470;-82
2022/03/02 01:39:19;;;;;;;33.15;17.90;;;5.90;99.90;;;;;;5031549;28;20023;-81
2022/03/02 01:41:45;;;;;;;33.03;18.33;;;5.90;99.90;;;;;;5027891;28;20041;-81
2022/03/02 01:44:11;;;;;;;34.17;18.63;;;5.90;99.90;;;;;;5032129;28;20113;-82
2022/03/02 01:46:37;;;;;;;34.35;18.65;;;5.90;99.90;;;;;;5031379;28;20125;-80
2022/03/02 01:49:03;;;;;;;35.58;19.65;;;5.90;99.90;;;;;;5031629;28;20018;-81
2022/03/02 01:51:29;;;;;;;30.63;18.42;;;5.90;99.90;;;;;;5029934;28;20028;-81
2022/03/02 01:53:54;;;;;;;32.75;19.17;;;5.80;99.90;;;;;;5031653;28;20466;-82
2022/03/02 01:56:20;;;;;;;32.65;18.73;;;5.80;99.90;;;;;;5031179;28;20033;-81
2022/03/02 01:58:48;;;;;;;34.38;18.63;;;5.80;99.90;;;;;;5029672;28;20029;-81
2022/03/02 02:01:15;;;;;;;35.08;19.67;;;5.80;99.90;;;;;;5029305;28;20033;-82
2022/03/02 02:03:41;;;;;;;37.05;19.75;;;5.80;99.90;;;;;;5024215;28;20116;-81
2022/03/02 02:06:08;;;;;;;32.30;19.70;;;5.80;99.90;;;;;;5026441;28;20113;-81
2022/03/02 02:08:34;;;;;;;34.33;19.75;;;5.80;99.90;;;;;;5017404;28;20034;-82
2022/03/02 02:11:00;;;;;;;40.88;21.25;;;5.80;99.90;;;;;;5029057;28;20037;-82
2022/03/02 02:13:27;;;;;;;35.45;18.83;;;5.80;99.90;;;;;;5026563;28;20030;-81
2022/03/02 02:15:53;;;;;;;34.67;19.77;;;5.80;99.90;;;;;;5031295;28;20068;-81
2022/03/02 02:18:19;;;;;;;36.63;19.45;;;5.80;99.90;;;;;;5021215;28;20485;-81
2022/03/02 02:20:45;;;;;;;33.53;19.00;;;5.80;99.90;;;;;;5024664;28;20050;-80
2022/03/02 02:23:11;;;;;;;34.38;19.95;;;5.80;99.90;;;;;;5031645;28;20037;-82
2022/03/02 02:25:37;;;;;;;33.40;18.02;;;5.70;99.90;;;;;;5031175;28;20048;-81
2022/03/02 02:28:03;;;;;;;36.20;20.17;;;5.70;99.90;;;;;;5035723;28;20038;-82
2022/03/02 02:30:30;;;;;;;36.95;19.38;;;5.60;99.90;;;;;;5031225;28;20033;-81
2022/03/02 02:32:55;;;;;;;34.70;19.15;;;5.60;99.90;;;;;;5029055;28;20123;-82
2022/03/02 02:35:21;;;;;;;33.67;19.23;;;5.50;99.90;;;;;;5031955;28;20076;-82
2022/03/02 02:37:47;;;;;;;35.40;18.30;;;5.50;99.90;;;;;;5017232;28;20484;-81
2022/03/02 02:40:19;;;;;;;33.28;18.65;;;5.40;99.90;;;;;;5028934;28;20029;-81
2022/03/02 02:42:46;;;;;;;39.30;19.63;;;5.30;99.90;;;;;;5030364;28;20176;-81
2022/03/02 02:45:15;;;;;;;33.85;19.45;;;5.30;99.90;;;;;;5029896;28;20057;-81
2022/03/02 02:47:41;;;;;;;34.75;19.48;;;5.20;99.90;;;;;;5030054;28;20049;-80
2022/03/02 02:50:15;;;;;;;35.70;20.08;;;5.10;99.90;;;;;;5031325;28;20025;-81
2022/03/02 02:52:41;;;;;;;33.95;20.08;;;5.10;99.90;;;;;;5030971;28;20452;-81
2022/03/02 02:55:10;;;;;;;35.00;18.70;;;5.00;99.90;;;;;;5028833;28;20053;-81
2022/03/02 02:57:35;;;;;;;34.58;18.73;;;5.00;99.90;;;;;;5030969;28;20404;-80
2022/03/02 03:00:01;;;;;;;36.47;20.13;;;4.90;99.90;;;;;;5021848;28;20022;-81
2022/03/02 03:02:27;;;;;;;36.70;19.58;;;4.80;99.90;;;;;;5030032;28;20041;-81
2022/03/02 03:04:52;;;;;;;39.22;19.98;;;4.80;99.90;;;;;;5030612;28;20026;-81
2022/03/02 03:07:18;;;;;;;34.20;19.85;;;4.80;99.90;;;;;;5028867;28;20481;-81
2022/03/02 03:09:43;;;;;;;37.20;20.27;;;4.80;99.90;;;;;;5031072;28;20061;-81
2022/03/02 03:12:09;;;;;;;34.08;18.38;;;4.70;99.90;;;;;;5031130;28;20025;-81
2022/03/02 03:14:34;;;;;;;32.90;19.08;;;4.70;99.90;;;;;;5028134;28;20543;-81
2022/03/02 03:17:00;;;;;;;36.85;21.20;;;4.70;99.90;;;;;;5028695;28;20036;-81
2022/03/02 03:19:26;;;;;;;41.80;22.38;;;4.70;99.90;;;;;;5023347;28;20394;-81
2022/03/02 03:21:51;;;;;;;38.85;20.60;;;4.60;99.90;;;;;;5025924;28;20038;-82
2022/03/02 03:24:17;;;;;;;38.38;20.92;;;4.60;99.90;;;;;;5028267;28;20362;-81
2022/03/02 03:26:42;;;;;;;34.13;19.65;;;4.60;99.90;;;;;;5030824;28;20179;-82
2022/03/02 03:29:08;;;;;;;34.53;19.27;;;4.60;99.90;;;;;;5027413;28;20026;-81
2022/03/02 03:31:33;;;;;;;37.00;20.30;;;4.60;99.90;;;;;;5022074;28;20033;-81
2022/03/02 03:33:59;;;;;;;39.58;20.88;;;4.60;99.90;;;;;;5028860;28;20060;-81
2022/03/02 03:36:25;;;;;;;37.50;19.73;;;4.60;99.90;;;;;;5030695;28;20044;-81
2022/03/02 03:38:50;;;;;;;39.22;20.95;;;4.50;99.90;;;;;;5030541;28;20029;-81
2022/03/02 03:41:16;;;;;;;35.17;20.88;;;4.50;99.90;;;;;;5032554;28;20041;-81
2022/03/02 03:43:41;;;;;;;38.42;20.65;;;4.50;99.90;;;;;;5020599;28;20100;-81
2022/03/02 03:46:07;;;;;;;36.53;20.90;;;4.50;99.90;;;;;;5030192;28;20112;-80
2022/03/02 03:48:32;;;;;;;43.38;21.38;;;4.40;99.90;;;;;;5032474;28;20425;-81
2022/03/02 03:50:58;;;;;;;37.70;20.95;;;4.40;99.90;;;;;;5034183;28;20040;-81
2022/03/02 03:53:23;;;;;;;35.72;21.05;;;4.40;99.90;;;;;;5034817;28;20033;-81
2022/03/02 03:55:49;;;;;;;36.75;19.60;;;4.40;99.90;;;;;;5032946;28;20032;-81
2022/03/02 03:58:14;;;;;;;39.05;21.40;;;4.40;99.90;;;;;;5028679;28;20469;-81
2022/03/02 04:00:40;;;;;;;38.30;20.75;;;4.40;99.90;;;;;;5028569;28;20037;-81
2022/03/02 04:03:05;;;;;;;38.42;21.35;;;4.40;99.90;;;;;;5018688;28;20033;-81
2022/03/02 04:05:31;;;;;;;37.95;22.10;;;4.40;99.90;;;;;;5024024;28;20018;-81
2022/03/02 04:07:56;;;;;;;39.03;21.52;;;4.40;99.90;;;;;;5029652;28;20030;-81
2022/03/02 04:10:22;;;;;;;35.28;20.00;;;4.40;99.90;;;;;;5025253;28;20069;-81
2022/03/02 04:12:48;;;;;;;39.13;21.27;;;4.40;99.90;;;;;;5032002;28;20477;-81
2022/03/02 04:15:13;;;;;;;46.15;21.60;;;4.40;99.90;;;;;;5029808;28;20394;-81
2022/03/02 04:17:39;;;;;;;39.58;21.48;;;4.40;99.90;;;;;;5032128;28;20033;-81
2022/03/02 04:20:06;;;;;;;36.78;19.23;;;4.40;99.90;;;;;;5030160;28;20070;-81
2022/03/02 04:22:32;;;;;;;38.95;21.15;;;4.40;99.90;;;;;;5032456;28;20041;-81
2022/03/02 04:24:57;;;;;;;36.70;20.40;;;4.30;99.90;;;;;;5033099;28;20028;-81
2022/03/02 04:27:23;;;;;;;40.28;21.70;;;4.30;99.90;;;;;;5033875;28;20190;-81
2022/03/02 04:29:49;;;;;;;39.55;22.55;;;4.30;99.90;;;;;;5032042;28;20469;-81
2022/03/02 04:32:14;;;;;;;39.08;20.73;;;4.30;99.90;;;;;;5030318;28;20034;-81
2022/03/02 04:34:40;;;;;;;35.70;20.63;;;4.30;99.90;;;;;;5031024;28;20127;-81
2022/03/02 04:37:06;;;;;;;37.38;20.25;;;4.30;99.90;;;;;;5032743;28;20796;-81
2022/03/02 04:39:31;;;;;;;38.83;21.50;;;4.30;99.90;;;;;;5033148;28;20072;-81
2022/03/02 04:41:57;;;;;;;37.97;21.08;;;4.20;99.90;;;;;;5025742;28;20072;-81
2022/03/02 04:44:22;;;;;;;40.20;21.58;;;4.20;99.90;;;;;;5022602;28;20024;-81
2022/03/02 04:46:50;;;;;;;37.97;21.00;;;4.20;99.90;;;;;;5029519;28;20428;-81
2022/03/02 04:49:18;;;;;;;41.10;22.08;;;4.10;99.90;;;;;;5031340;28;20028;-81
2022/03/02 04:51:48;;;;;;;43.75;22.48;;;4.00;99.90;;;;;;5029278;28;20037;-81
2022/03/02 04:56:59;;;;;;;39.03;20.90;;;3.90;99.90;;;;;;5032189;28;20084;-81
2022/03/02 04:59:25;;;;;;;38.08;19.58;;;3.80;99.90;;;;;;5032206;28;20025;-81
2022/03/02 05:01:50;;;;;;;39.95;21.35;;;3.80;99.90;;;;;;5027536;28;20033;-81
2022/03/02 05:04:16;;;;;;;41.78;20.60;;;3.70;99.90;;;;;;5025704;28;20020;-81
2022/03/02 05:06:41;;;;;;;41.92;22.70;;;3.70;99.90;;;;;;5024687;28;20021;-81
2022/03/02 05:09:07;;;;;;;38.72;21.65;;;3.60;99.90;;;;;;5029744;28;20037;-81
2022/03/02 05:11:32;;;;;;;39.53;22.00;;;3.60;99.90;;;;;;5031337;28;20496;-81
2022/03/02 05:13:58;;;;;;;38.67;21.08;;;3.50;99.90;;;;;;5028346;28;20037;-81
2022/03/02 05:16:23;;;;;;;41.03;21.40;;;3.40;99.90;;;;;;5018159;28;20033;-81
2022/03/02 05:18:49;;;;;;;39.60;20.05;;;3.40;99.90;;;;;;5025289;28;20029;-81
2022/03/02 05:21:15;;;;;;;39.65;21.08;;;3.40;99.90;;;;;;5031274;28;20442;-81
2022/03/02 05:23:41;;;;;;;37.55;21.60;;;3.40;99.90;;;;;;5029075;28;20067;-81
2022/03/02 05:26:06;;;;;;;38.60;21.95;;;3.40;99.90;;;;;;5021157;28;20060;-80
2022/03/02 05:28:32;;;;;;;39.00;21.58;;;3.40;99.90;;;;;;5028629;28;20057;-81
2022/03/02 05:30:57;;;;;;;39.40;22.13;;;3.40;99.90;;;;;;5028758;28;20038;-80
2022/03/02 05:33:23;;;;;;;36.28;21.20;;;3.40;99.90;;;;;;5018328;28;20068;-81
2022/03/02 05:35:49;;;;;;;41.47;21.38;;;3.30;99.90;;;;;;5030140;28;20088;-80
2022/03/02 05:38:14;;;;;;;37.65;21.67;;;3.30;99.90;;;;;;5028068;28;20026;-80
2022/03/02 05:40:40;;;;;;;39.78;21.15;;;3.20;99.90;;;;;;5026862;28;20037;-80
2022/03/02 05:43:05;;;;;;;40.28;21.38;;;3.10;99.90;;;;;;5023954;28;20034;-78
2022/03/02 05:45:31;;;;;;;42.72;21.75;;;3.00;99.90;;;;;;5019421;28;20029;-78
2022/03/02 05:47:56;;;;;;;42.33;22.13;;;3.00;99.90;;;;;;5033636;28;20029;-79
2022/03/02 05:50:22;;;;;;;40.17;20.98;;;2.90;99.90;;;;;;5030840;28;20021;-79
2022/03/02 05:52:47;;;;;;;38.92;20.70;;;2.80;99.90;;;;;;5032128;28;20503;-78
2022/03/02 05:55:13;;;;;;;40.88;21.40;;;2.70;99.90;;;;;;5034538;28;20053;-79
2022/03/02 05:57:38;;;;;;;40.78;21.58;;;2.70;99.90;;;;;;5033193;28;20112;-79
2022/03/02 06:00:06;;;;;;;41.60;21.52;;;2.60;99.90;;;;;;5030049;28;20034;-79
2022/03/02 06:02:32;;;;;;;44.47;22.27;;;2.60;99.90;;;;;;5028143;28;20113;-79
2022/03/02 06:04:57;;;;;;;41.45;21.05;;;2.50;99.90;;;;;;5030903;28;20079;-79
2022/03/02 06:07:23;;;;;;;38.95;21.20;;;2.50;99.90;;;;;;5030593;28;20053;-79
2022/03/02 06:09:49;;;;;;;39.22;21.35;;;2.50;99.90;;;;;;5028692;28;20068;-79
2022/03/02 06:12:15;;;;;;;40.50;22.02;;;2.40;99.90;;;;;;5030004;28;20037;-79
2022/03/02 06:14:41;;;;;;;41.58;21.02;;;2.40;99.90;;;;;;5031855;28;20573;-79
2022/03/02 06:17:09;;;;;;;42.65;22.30;;;2.50;99.90;;;;;;5030452;28;20128;-79
2022/03/02 06:19:35;;;;;;;39.05;21.33;;;2.40;99.90;;;;;;5026712;28;20505;-79
2022/03/02 06:22:02;;;;;;;42.03;21.67;;;2.40;99.90;;;;;;5028911;28;20041;-79
2022/03/02 06:24:30;;;;;;;41.05;22.40;;;2.40;99.90;;;;;;5026529;28;20045;-81
2022/03/02 06:26:56;;;;;;;41.90;22.73;;;2.40;99.90;;;;;;5018199;28;20052;-80
2022/03/02 06:29:22;;;;;;;44.45;22.38;;;2.40;99.90;;;;;;5022161;28;20033;-80
2022/03/02 06:31:47;;;;;;;43.38;21.77;;;2.50;99.90;;;;;;5021391;28;20045;-80
2022/03/02 06:34:13;;;;;;;43.20;23.13;;;2.50;99.90;;;;;;5021422;28;20132;-80
2022/03/02 06:36:38;;;;;;;39.90;22.63;;;2.50;99.90;;;;;;5016192;28;20034;-80
2022/03/02 06:39:05;;;;;;;44.22;22.60;;;2.50;99.90;;;;;;5017601;28;20052;-79
2022/03/02 06:41:36;;;;;;;41.38;22.42;;;2.50;99.90;;;;;;5021294;28;20030;-79
2022/03/02 06:44:23;;;;;;;43.80;22.52;;;2.50;99.90;;;;;;5013330;28;20510;-80
2022/03/02 06:47:12;;;;;;;41.67;22.30;;;2.50;99.90;;;;;;5020059;28;20095;-79
2022/03/02 06:49:56;;;;;;;39.47;21.70;;;2.60;99.90;;;;;;5018655;28;20037;-80
2022/03/02 06:52:29;;;;;;;41.42;22.05;;;2.60;99.90;;;;;;5024603;28;20022;-80
2022/03/02 06:54:56;;;;;;;42.53;22.13;;;2.60;99.90;;;;;;5028585;28;20037;-80
2022/03/02 06:57:28;;;;;;;47.13;23.52;;;2.60;99.90;;;;;;5027861;28;20032;-80
2022/03/02 06:59:57;;;;;;;45.67;22.90;;;2.60;99.90;;;;;;5028416;28;20034;-80
2022/03/02 07:03:01;;;;;;;40.05;21.17;;;2.50;99.90;;;;;;5018217;28;20073;-80
2022/03/02 07:05:28;;;;;;;43.15;22.15;;;2.50;99.90;;;;;;5009400;28;20033;-80
2022/03/02 07:07:53;;;;;;;44.85;23.23;;;2.50;99.90;;;;;;5021896;28;20028;-78
2022/03/02 07:10:20;;;;;;;44.60;22.73;;;2.50;99.90;;;;;;5021581;28;21860;-80
2022/03/02 07:12:45;;;;;;;41.25;21.40;;;2.60;99.90;;;;;;5025803;28;20033;-79
2022/03/02 07:15:12;;;;;;;42.95;22.98;;;2.60;99.90;;;;;;5032510;28;20021;-78
2022/03/02 07:17:39;;;;;;;50.97;23.70;;;2.70;99.90;;;;;;5027759;28;20029;-79
2022/03/02 07:20:10;;;;;;;42.25;22.13;;;2.70;99.90;;;;;;5023715;28;20041;-81
2022/03/02 07:22:42;;;;;;;45.22;22.48;;;2.80;99.90;;;;;;5026726;28;20038;-80
2022/03/02 07:25:19;;;;;;;49.08;23.48;;;2.80;99.90;;;;;;5018916;28;20160;-80
2022/03/02 07:27:45;;;;;;;50.78;23.73;;;2.90;99.90;;;;;;5030780;28;20077;-78
2022/03/02 07:30:12;;;;;;;41.70;21.95;;;3.00;99.90;;;;;;5032232;28;20025;-79
2022/03/02 07:32:41;;;;;;;43.88;22.45;;;3.00;99.90;;;;;;5019810;28;20048;-80
2022/03/02 07:35:07;;;;;;;43.13;23.15;;;3.10;99.90;;;;;;5021622;28;20021;-79
2022/03/02 07:37:33;;;;;;;42.47;21.73;;;3.30;99.90;;;;;;5028480;28;20025;-78
2022/03/02 07:39:59;;;;;;;41.72;22.45;;;3.40;99.90;;;;;;5030865;28;20503;-78
2022/03/02 07:42:25;;;;;;;40.53;20.70;;;3.50;99.90;;;;;;5032199;28;20033;-78
2022/03/02 07:44:52;;;;;;;43.03;23.00;;;3.60;99.90;;;;;;5028360;28;20044;-78
2022/03/02 07:47:21;;;;;;;40.92;19.67;;;3.80;99.90;;;;;;5031557;28;20071;-79
2022/03/02 07:49:47;;;;;;;42.75;22.23;;;3.90;99.90;;;;;;5029730;28;20037;-78
2022/03/02 07:52:15;;;;;;;42.85;22.20;;;4.00;99.90;;;;;;5029746;28;20498;-78
2022/03/02 07:54:41;;;;;;;35.65;20.85;;;4.10;99.90;;;;;;5028436;28;20049;-78
2022/03/02 07:57:10;;;;;;;39.35;21.70;;;4.20;99.90;;;;;;5031933;28;20044;-78
2022/03/02 07:59:38;;;;;;;40.80;21.10;;;4.40;99.90;;;;;;5029688;28;20022;-78
2022/03/02 08:02:06;;;;;;;36.95;20.42;;;4.40;99.90;;;;;;5029473;28;20054;-79
2022/03/02 08:04:32;;;;;;;42.35;20.17;;;4.60;99.90;;;;;;5024991;28;20025;-78
2022/03/02 08:06:58;;;;;;;39.22;22.27;;;4.70;99.90;;;;;;5025778;28;20397;-78
2022/03/02 08:09:24;;;;;;;40.38;20.48;;;4.80;99.90;;;;;;5026828;28;20033;-78
2022/03/02 08:11:49;;;;;;;36.33;20.63;;;4.90;99.90;;;;;;5023624;28;20021;-78
2022/03/02 08:14:18;;;;;;;37.83;21.23;;;5.00;99.90;;;;;;5029169;28;20052;-78
2022/03/02 08:16:45;;;;;;;35.78;20.45;;;5.10;99.90;;;;;;5034846;28;20048;-78
2022/03/02 08:19:11;;;;;;;36.35;19.67;;;5.20;99.90;;;;;;5026965;28;20541;-77
2022/03/02 08:21:41;;;;;;;35.85;20.58;;;5.30;99.90;;;;;;5022239;28;20128;-78
2022/03/02 08:24:08;;;;;;;34.22;18.83;;;5.40;99.90;;;;;;5021650;28;20040;-78
2022/03/02 08:26:37;;;;;;;31.38;16.42;;;5.50;99.90;;;;;;5023867;28;20445;-78
2022/03/02 08:29:10;;;;;;;33.33;17.27;;;5.60;99.90;;;;;;5021285;28;20033;-78
2022/03/02 08:31:38;;;;;;;32.42;16.80;;;5.70;99.90;;;;;;5020625;28;20022;-78
2022/03/02 08:34:04;;;;;;;28.77;15.38;;;5.80;99.90;;;;;;5022419;28;20068;-79
2022/03/02 08:36:36;;;;;;;28.20;15.82;;;5.90;99.90;;;;;;5028621;28;20120;-78
2022/03/02 08:39:07;;;;;;;28.95;14.82;;;6.10;99.90;;;;;;5029842;28;20409;-78
2022/03/02 08:41:34;;;;;;;23.58;14.13;;;6.20;99.90;;;;;;5033580;28;20045;-79
2022/03/02 08:44:00;;;;;;;25.60;13.63;;;6.30;99.90;;;;;;5026144;28;20026;-77
2022/03/02 08:46:26;;;;;;;22.23;12.25;;;6.40;99.90;;;;;;5027040;28;20033;-79
2022/03/02 08:48:52;;;;;;;20.55;11.55;;;6.60;99.90;;;;;;5032515;28;20053;-78
2022/03/02 08:51:22;;;;;;;20.17;12.10;;;6.70;99.90;;;;;;5026646;28;20038;-78
2022/03/02 08:53:50;;;;;;;19.73;11.00;;;6.90;99.90;;;;;;5020233;28;20048;-79
2022/03/02 08:56:17;;;;;;;20.63;10.27;;;7.00;99.30;;;;;;5028937;28;20482;-79
2022/03/02 08:58:44;;;;;;;19.30;11.15;;;7.20;98.60;;;;;;5025868;28;20613;-77
2022/03/02 09:01:12;;;;;;;18.88;10.05;;;7.30;97.90;;;;;;5031740;28;20393;-77
2022/03/02 09:03:40;;;;;;;18.42;10.80;;;7.40;96.10;;;;;;5036549;28;20430;-78
2022/03/02 09:06:07;;;;;;;22.90;13.65;;;7.50;93.90;;;;;;5032621;28;20037;-78
2022/03/02 09:08:33;;;;;;;33.60;16.10;;;7.50;93.60;;;;;;5024186;28;20056;-78
2022/03/02 09:10:59;;;;;;;28.08;16.38;;;7.60;93.50;;;;;;5026062;28;20795;-78
2022/03/02 09:13:25;;;;;;;28.27;16.13;;;7.50;93.50;;;;;;5028011;28;20026;-78
2022/03/02 09:15:51;;;;;;;30.02;16.27;;;7.50;93.30;;;;;;5031140;28;20052;-78
2022/03/02 09:18:17;;;;;;;28.92;16.42;;;7.50;92.70;;;;;;5023750;28;20524;-79
2022/03/02 09:20:44;;;;;;;25.15;14.75;;;7.40;92.30;;;;;;5024975;28;20137;-79
2022/03/02 09:23:10;;;;;;;28.52;15.65;;;7.40;92.20;;;;;;5020289;28;20489;-78
2022/03/02 09:25:39;;;;;;;27.90;16.02;;;7.40;92.10;;;;;;5022422;28;20021;-79
2022/03/02 09:28:08;;;;;;;26.65;15.90;;;7.40;91.60;;;;;;5018252;28;20065;-77
2022/03/02 09:30:34;;;;;;;27.95;16.17;;;7.50;91.10;;;;;;5016942;28;20100;-77
2022/03/02 09:33:01;;;;;;;26.90;15.32;;;7.50;90.40;;;;;;5018926;28;20737;-77
2022/03/02 09:35:28;;;;;;;30.83;16.13;;;7.60;90.10;;;;;;5023767;28;20017;-77
2022/03/02 09:37:56;;;;;;;24.67;14.55;;;7.60;89.00;;;;;;5021690;28;20037;-78
2022/03/02 09:40:30;;;;;;;22.80;13.52;;;7.70;89.20;;;;;;5020819;28;20034;-79
2022/03/02 09:43:02;;;;;;;22.65;12.68;;;7.80;87.20;;;;;;5015733;28;20064;-78
2022/03/02 09:45:31;;;;;;;20.02;12.15;;;8.00;85.90;;;;;;5025133;28;20026;-79
2022/03/02 09:48:03;;;;;;;23.20;11.80;;;8.00;86.20;;;;;;5022180;28;20029;-79
2022/03/02 09:50:35;;;;;;;23.48;12.68;;;8.10;83.10;;;;;;5019607;28;20031;-78
2022/03/02 09:53:08;;;;;;;19.27;11.73;;;8.20;81.30;;;;;;5029505;28;20030;-79
2022/03/02 09:55:35;;;;;;;20.20;11.23;;;8.20;79.10;;;;;;5024303;28;20029;-78
2022/03/02 09:58:02;;;;;;;23.30;12.18;;;8.30;78.40;;;;;;5017974;28;20030;-78
2022/03/02 10:00:29;;;;;;;20.52;12.05;;;8.40;78.00;;;;;;5020447;28;20022;-78
2022/03/02 10:02:58;;;;;;;21.92;11.23;;;8.50;78.50;;;;;;5019762;28;20045;-79
2022/03/02 10:05:26;;;;;;;20.88;11.02;;;8.60;77.50;;;;;;5020925;28;20032;-78
2022/03/02 10:07:56;;;;;;;20.83;12.23;;;8.60;76.60;;;;;;5031431;28;20501;-78
2022/03/02 10:10:23;;;;;;;20.00;11.40;;;8.70;75.40;;;;;;5022754;28;20325;-79
2022/03/02 10:12:50;;;;;;;22.58;12.00;;;8.70;74.30;;;;;;5017727;28;20045;-80
2022/03/02 10:15:16;;;;;;;25.10;11.77;;;8.70;74.30;;;;;;5030121;28;20047;-79
2022/03/02 10:17:44;;;;;;;25.45;11.98;;;8.70;73.80;;;;;;5024267;28;20014;-79
2022/03/02 10:20:19;;;;;;;25.33;12.57;;;8.80;74.20;;;;;;5016962;28;20046;-79
2022/03/02 10:23:28;;;;;;;23.42;11.77;;;8.90;71.90;;;;;;5016598;28;20041;-79
2022/03/02 10:26:08;;;;;;;22.73;13.00;;;8.90;72.20;;;;;;5022980;28;20033;-79
2022/03/02 10:28:52;;;;;;;21.15;11.60;;;9.00;70.40;;;;;;5022180;28;20061;-78
2022/03/02 10:31:57;;;;;;;21.92;13.35;;;9.00;71.10;;;;;;5019099;28;20072;-77
2022/03/02 10:34:51;;;;;;;25.10;12.93;;;9.00;70.60;;;;;;5021887;28;20036;-79
2022/03/02 10:37:19;;;;;;;21.48;12.48;;;9.10;70.10;;;;;;5020162;28;20045;-80
2022/03/02 10:40:20;;;;;;;23.63;12.65;;;9.20;71.20;;;;;;5018033;28;20045;-79
2022/03/02 10:42:57;;;;;;;21.00;12.25;;;9.30;70.70;;;;;;5018466;28;20040;-79
2022/03/02 10:45:27;;;;;;;23.30;12.77;;;9.30;69.10;;;;;;5023275;28;20061;-79
2022/03/02 10:48:02;;;;;;;24.20;13.77;;;9.30;69.20;;;;;;5020071;28;20484;-77
2022/03/02 10:50:34;;;;;;;28.83;12.80;;;9.30;68.70;;;;;;5023573;28;20526;-77
2022/03/02 10:53:03;;;;;;;21.48;13.10;;;9.40;67.90;;;;;;5019070;28;20074;-77
2022/03/02 10:55:31;;;;;;;23.90;12.35;;;9.30;67.70;;;;;;5020403;28;20029;-77
2022/03/02 10:57:59;;;;;;;28.50;14.73;;;9.30;68.00;;;;;;5024858;28;20037;-80
2022/03/02 11:00:25;;;;;;;21.00;13.07;;;9.30;67.60;;;;;;5023693;28;20129;-80
2022/03/02 11:02:57;;;;;;;25.23;13.57;;;9.30;67.10;;;;;;5021365;28;20124;-82
2022/03/02 11:05:24;;;;;;;24.40;13.07;;;9.30;67.20;;;;;;5028082;28;20037;-82
2022/03/02 11:07:50;;;;;;;20.23;12.18;;;9.40;67.10;;;;;;5024457;28;20026;-82
2022/03/02 11:10:20;;;;;;;22.02;12.60;;;9.40;67.50;;;;;;5027307;28;20022;-81
2022/03/02 11:12:47;;;;;;;21.23;12.73;;;9.50;67.60;;;;;;5026800;28;20026;-82
2022/03/02 11:15:14;;;;;;;22.33;13.05;;;9.60;67.80;;;;;;5027477;28;20491;-83
2022/03/02 11:18:00;;;;;;;22.42;12.20;;;9.60;66.40;;;;;;5034121;28;20029;-82
2022/03/02 11:20:29;;;;;;;21.33;12.57;;;9.60;65.10;;;;;;5029364;28;20038;-82
2022/03/02 11:23:02;;;;;;;21.20;12.07;;;9.60;65.30;;;;;;5020095;28;20045;-82
2022/03/02 11:25:52;;;;;;;22.23;12.90;;;9.60;65.00;;;;;;5019966;28;20028;-82
2022/03/02 11:28:21;;;;;;;21.60;12.57;;;9.60;64.90;;;;;;5026219;28;20076;-82
2022/03/02 11:30:51;;;;;;;26.50;12.55;;;9.60;65.40;;;;;;5027041;28;20371;-82
2022/03/02 11:33:22;;;;;;;20.63;12.48;;;9.60;65.30;;;;;;5031849;28;20465;-82
2022/03/02 11:35:47;;;;;;;18.65;11.68;;;9.80;65.60;;;;;;5028628;28;20025;-82
2022/03/02 11:38:19;;;;;;;23.17;12.23;;;9.90;65.50;;;;;;5029436;28;20099;-82
2022/03/02 11:40:47;;;;;;;20.35;12.13;;;9.90;63.70;;;;;;5025599;28;20028;-83
2022/03/02 11:43:20;;;;;;;22.10;12.35;;;9.90;64.20;;;;;;5023834;28;20025;-83
2022/03/02 11:45:45;;;;;;;;;;;9.90;63.90;;;;;;5032586;28;20056;-82
2022/03/02 11:48:15;;;;;;;19.70;11.20;;;10.00;62.70;;;;;;5019424;28;19913;-82
2022/03/02 11:51:05;;;;;;;17.33;11.07;;;10.00;62.60;;;;;;5035160;28;20033;-83
2022/03/02 11:53:46;;;;;;;19.85;11.57;;;10.10;62.10;;;;;;5031769;28;20057;-83
2022/03/02 11:56:17;;;;;;;19.80;10.77;;;10.10;61.20;;;;;;5035178;28;20030;-83
2022/03/02 11:59:06;;;;;;;24.13;12.70;;;10.10;62.00;;;;;;5035326;28;20028;-83
2022/03/02 12:01:43;;;;;;;17.92;11.10;;;10.30;62.80;;;;;;5030712;28;20042;-83
2022/03/02 12:04:09;;;;;;;21.40;11.20;;;10.40;61.70;;;;;;5033178;28;20044;-83
2022/03/02 12:06:48;;;;;;;21.52;12.15;;;10.40;61.20;;;;;;5035333;28;20025;-83
2022/03/02 12:09:28;;;;;;;20.10;11.25;;;10.40;61.50;;;;;;5025962;28;20121;-84
2022/03/02 12:12:16;;;;;;;21.48;11.27;;;10.50;62.20;;;;;;5025435;28;20037;-84
2022/03/02 12:14:51;;;;;;;20.10;10.60;;;10.60;61.20;;;;;;5021544;28;20029;-83
2022/03/02 12:17:33;;;;;;;16.92;10.38;;;10.70;61.50;;;;;;5026193;28;20481;-82
2022/03/02 12:20:03;;;;;;;19.52;9.57;;;10.80;61.80;;;;;;5026685;28;21872;-85
2022/03/02 12:22:35;;;;;;;18.17;10.13;;;10.90;60.70;;;;;;5024161;28;20095;-82
2022/03/02 12:25:01;;;;;;;19.63;9.98;;;11.00;60.40;;;;;;5021640;28;20026;-84
2022/03/02 12:27:27;;;;;;;17.17;9.73;;;11.00;59.90;;;;;;5022650;28;20119;-80
2022/03/02 12:29:59;;;;;;;17.10;10.27;;;11.00;59.40;;;;;;5023116;28;20207;-82
2022/03/02 12:32:30;;;;;;;16.75;10.13;;;11.00;58.40;;;;;;5026655;28;20111;-81
2022/03/02 12:34:57;;;;;;;19.55;10.40;;;11.00;57.00;;;;;;5018814;28;20029;-80
2022/03/02 12:37:24;;;;;;;20.75;10.38;;;11.00;58.10;;;;;;5025028;28;20053;-83
2022/03/02 12:39:51;;;;;;;18.05;10.77;;;11.00;56.80;;;;;;5019651;28;20133;-80
2022/03/02 12:42:17;;;;;;;18.88;10.35;;;10.90;56.90;;;;;;5023668;28;20037;-82
2022/03/02 12:44:46;;;;;;;16.48;9.95;;;10.90;57.10;;;;;;5025821;28;20025;-82